VILK/LKO METAR and TAF weather

Enter ICAO airport designator
Station Type Date Time Source
VILK METAR 2021/08/05 05:30 UTC NOAA

VILK 050530Z 13006KT 5000 HZ SCT020 SCT025 BKN100 32/29 Q1000 NOSIG


Station Type Date Time Source
VILK Decoded METAR 2021/08/05 05:30 UTC NOAA

Lucknow / Amausi, India (VILK) 26-45N 080-53E 128M
Aug 05, 2021 - 01:30 AM EDT / 2021.08.05 0530 UTC
Wind: from the SE (130 degrees) at 7 MPH (6 KT):0
Visibility: 3 mile(s):0
Sky conditions: mostly cloudy
Weather: haze
Temperature: 89 F (32 C)
Heat index: 112.6 F (44.8 C):1
Dew Point: 84 F (29 C)
Relative Humidity: 84%
Pressure (altimeter): 29.53 in. Hg (1000 hPa)
ob: VILK 050530Z 13006KT 5000 HZ SCT020 SCT025 BKN100 32/29 Q1000 NOSIG
cycle: 5

Station Type Date Time Source
VILK TAF 2021/08/05 06:18 UTC NOAA

TAF VILK 050500Z 0506/0612 13006KT 5000 HZ SCT020 SCT025 BKN100
TEMPO 0508/0512 13010G20KT 2000 -TSRA -RA FEW030CB OVC090
BECMG 0513/0515 07004KT 3000 HZ BR SCT020 BKN100
BECMG 0604/0606 10006KT 5000 HZ SCT020 SCT025 BKN100
TEMPO 0608/0612 2000 -TSRA -RA FEW030CB OVC090

Example: see airport list